logo
Rechercher aéroport 
image banner adimage banner adimage banner ad
image banner ad

CN46 - The Mcconnell Foundation

Situé à Redding, United States

ICAO - CN46, IATA -

Données fournies par Airmate  

Information générale

Coordonnées: N40°35'54" W122°19'56"
Élévation : 643 feet MSL.
Variation magnétique : 16° East
Voir autres Aéroports à California

Données opérationnelles

Special qualification required
Heure actuelle UTC:
Heure actuelle locale:
Météo à : KRDD - Redding Muni ( 10 km )
METAR: KRDD 011753Z 33007KT 310V020 10SM CLR 29/04 A2980 RMK AO2 SLP086 T02940044 10300 20161 58000
TAF: KRDD 011721Z 0118/0218 VRB06KT P6SM SKC
Voir NOTAMs / SUP AIP / TFR affectant cet aéroport [VIEW]
Fréquences de communication: [VIEW]

Pistes:

Coordonnées de l'aéroport

Adresse: Redding United States

Vue satellite de CN46